createdAt,value
2017-09-01T00:02:09.462Z,87.30
2017-09-01T00:04:36.672Z,87.70
2017-09-01T00:07:02.891Z,87.90
2017-09-01T00:09:29.035Z,88.00
2017-09-01T00:11:55.187Z,87.90
2017-09-01T00:14:21.446Z,87.10
2017-09-01T00:16:47.646Z,87.80
2017-09-01T00:19:13.883Z,87.90
2017-09-01T00:21:40.182Z,88.30
2017-09-01T00:24:06.348Z,88.00
2017-09-01T00:26:32.473Z,87.50
2017-09-01T00:28:58.706Z,87.60
2017-09-01T00:31:24.905Z,87.70
2017-09-01T00:33:51.212Z,89.10
2017-09-01T00:36:17.513Z,90.10
2017-09-01T00:38:43.708Z,90.40
2017-09-01T00:41:09.865Z,89.20
2017-09-01T00:43:36.085Z,89.80
2017-09-01T00:46:02.233Z,89.10
2017-09-01T00:48:28.504Z,89.60
2017-09-01T00:50:54.807Z,90.60
2017-09-01T00:53:20.957Z,90.80
2017-09-01T00:55:47.189Z,90.50
2017-09-01T00:58:13.461Z,90.30
2017-09-01T01:00:41.714Z,90.70
2017-09-01T01:03:07.944Z,90.20
2017-09-01T01:05:34.120Z,91.10
2017-09-01T01:08:00.330Z,89.90
2017-09-01T01:10:26.520Z,90.10
2017-09-01T01:12:52.762Z,90.90
2017-09-01T01:15:19.016Z,91.40
2017-09-01T01:17:45.279Z,90.00
2017-09-01T01:20:11.541Z,91.00
2017-09-01T01:22:37.665Z,90.00
2017-09-01T01:25:03.892Z,90.60
2017-09-01T01:27:30.119Z,91.90
2017-09-01T01:29:56.343Z,92.60
2017-09-01T01:32:22.579Z,93.10
2017-09-01T01:34:48.940Z,93.60
2017-09-01T01:37:15.072Z,93.80
2017-09-01T01:39:41.259Z,94.10
2017-09-01T01:42:07.518Z,93.90
2017-09-01T01:44:33.775Z,94.50
2017-09-01T01:46:59.920Z,93.00
2017-09-01T01:49:26.186Z,92.90
2017-09-01T01:51:52.414Z,90.50
2017-09-01T01:54:18.622Z,90.90
2017-09-01T01:56:45.002Z,92.40
2017-09-01T01:59:11.171Z,91.10
2017-09-01T02:01:37.493Z,92.30
2017-09-01T02:04:03.651Z,92.60
2017-09-01T02:06:29.779Z,90.90
2017-09-01T02:08:55.980Z,91.30
2017-09-01T02:11:22.168Z,90.70
2017-09-01T02:13:48.359Z,91.40
2017-09-01T02:16:14.556Z,89.60
2017-09-01T02:18:40.890Z,89.80
2017-09-01T02:21:07.025Z,91.70
2017-09-01T02:23:33.150Z,90.20
2017-09-01T02:25:59.494Z,90.00
2017-09-01T02:28:25.723Z,90.50
2017-09-01T02:30:51.954Z,91.40
2017-09-01T02:33:18.208Z,91.80
2017-09-01T02:35:44.419Z,90.30
2017-09-01T02:38:10.695Z,91.50
2017-09-01T02:40:36.863Z,91.60
2017-09-01T02:43:03.066Z,91.50
2017-09-01T02:45:29.191Z,91.80
2017-09-01T02:47:55.336Z,91.40
2017-09-01T02:50:21.601Z,93.10
2017-09-01T02:52:47.794Z,93.50
2017-09-01T02:55:14.117Z,94.20
2017-09-01T02:57:40.334Z,94.50
2017-09-01T03:00:06.484Z,93.50
2017-09-01T03:02:32.623Z,95.10
2017-09-01T03:04:58.808Z,94.90
2017-09-01T03:07:24.957Z,94.00
2017-09-01T03:09:51.101Z,94.80
2017-09-01T03:12:17.287Z,95.20
2017-09-01T03:14:43.450Z,95.10
2017-09-01T03:17:09.734Z,94.60
2017-09-01T03:19:35.948Z,94.10
2017-09-01T03:22:02.097Z,94.20
2017-09-01T03:24:28.356Z,93.10
2017-09-01T03:26:54.558Z,95.10
2017-09-01T03:29:27.886Z,94.80
2017-09-01T03:31:54.099Z,94.10
2017-09-01T03:34:20.327Z,94.70
2017-09-01T03:36:46.574Z,95.10
2017-09-01T03:39:12.797Z,95.00
2017-09-01T03:41:38.997Z,94.90
2017-09-01T03:44:05.147Z,95.90
2017-09-01T03:46:31.257Z,95.30
2017-09-01T03:48:57.399Z,96.30
2017-09-01T03:51:23.743Z,95.60
2017-09-01T03:53:49.983Z,95.80
2017-09-01T03:56:16.160Z,94.20
2017-09-01T03:58:42.317Z,94.50
2017-09-01T04:01:08.517Z,94.10
2017-09-01T04:03:34.730Z,95.30
2017-09-01T04:06:00.973Z,95.00
2017-09-01T04:08:27.109Z,96.10
2017-09-01T04:10:53.337Z,94.90
2017-09-01T04:13:19.593Z,94.80
2017-09-01T04:15:45.825Z,94.70
2017-09-01T04:18:12.037Z,94.30
2017-09-01T04:20:38.486Z,95.40
2017-09-01T04:23:04.612Z,94.80
2017-09-01T04:25:30.748Z,95.20
2017-09-01T04:27:57.367Z,96.00
2017-09-01T04:30:24.075Z,96.60
2017-09-01T04:32:50.307Z,96.90
2017-09-01T04:35:16.462Z,95.10
2017-09-01T04:37:43.284Z,96.20
2017-09-01T04:40:09.413Z,96.20
2017-09-01T04:45:08.283Z,95.20
2017-09-01T04:47:34.991Z,95.40
2017-09-01T04:50:01.231Z,96.00
2017-09-01T04:52:27.456Z,96.60
2017-09-01T04:54:53.672Z,96.70
2017-09-01T04:57:19.943Z,96.60
2017-09-01T04:59:46.082Z,96.50
2017-09-01T05:02:12.365Z,96.70
2017-09-01T05:04:38.528Z,96.00
2017-09-01T05:07:04.657Z,95.50
2017-09-01T05:09:30.818Z,96.00
2017-09-01T05:11:57.030Z,95.30
2017-09-01T05:14:23.286Z,93.40
2017-09-01T05:16:49.622Z,93.20
2017-09-01T05:19:15.801Z,93.10
2017-09-01T05:21:42.015Z,93.00
2017-09-01T05:24:08.164Z,92.60
2017-09-01T05:26:34.291Z,92.60
2017-09-01T05:29:00.457Z,92.10
2017-09-01T05:31:26.765Z,91.70
2017-09-01T05:33:53.001Z,91.90
2017-09-01T05:36:19.268Z,92.40
2017-09-01T05:38:45.426Z,92.60
2017-09-01T05:41:11.538Z,92.30
2017-09-01T05:43:37.742Z,92.20
2017-09-01T05:46:04.025Z,91.70
2017-09-01T05:48:30.271Z,91.30
2017-09-01T05:50:56.472Z,90.80
2017-09-01T05:53:22.933Z,91.40
2017-09-01T05:55:49.155Z,91.00
2017-09-01T05:58:15.382Z,89.50
2017-09-01T06:00:41.613Z,89.90
2017-09-01T06:03:07.857Z,89.80
2017-09-01T06:05:33.978Z,88.40
2017-09-01T06:08:00.283Z,86.70
2017-09-01T06:10:26.517Z,86.50
2017-09-01T06:12:52.768Z,85.70
2017-09-01T06:15:19.057Z,85.50
2017-09-01T06:17:45.219Z,85.50
2017-09-01T06:20:11.444Z,86.40
2017-09-01T06:22:37.750Z,81.00
2017-09-01T06:25:03.887Z,77.10
2017-09-01T06:27:30.107Z,75.60
2017-09-01T06:29:56.271Z,75.60
2017-09-01T06:32:22.378Z,74.60
2017-09-01T06:34:48.581Z,72.50
2017-09-01T06:37:14.752Z,72.70
2017-09-01T06:39:40.979Z,72.40
2017-09-01T06:42:07.770Z,71.10
2017-09-01T06:44:34.020Z,70.40
2017-09-01T06:47:00.311Z,68.80
2017-09-01T06:49:26.595Z,66.30
2017-09-01T06:51:52.936Z,66.60
2017-09-01T06:54:19.220Z,67.40
2017-09-01T06:56:45.389Z,66.80
2017-09-01T06:59:11.923Z,64.40
2017-09-01T07:01:38.194Z,63.20
2017-09-01T07:04:04.369Z,62.40
2017-09-01T07:06:31.895Z,59.40
2017-09-01T07:08:58.120Z,60.00
2017-09-01T07:11:24.585Z,58.20
2017-09-01T07:13:51.266Z,58.10
2017-09-01T07:16:17.425Z,56.50
2017-09-01T07:18:43.648Z,56.30
2017-09-01T07:21:10.336Z,56.20
2017-09-01T07:23:36.553Z,55.90
2017-09-01T07:26:02.895Z,54.50
2017-09-01T07:28:29.384Z,52.70
2017-09-01T07:30:55.566Z,52.30
2017-09-01T07:33:22.150Z,53.00
2017-09-01T07:35:48.412Z,53.10
2017-09-01T07:38:14.676Z,49.50
2017-09-01T07:40:40.931Z,47.50
2017-09-01T07:43:07.121Z,46.40
2017-09-01T07:45:33.346Z,48.00
2017-09-01T07:47:59.550Z,50.90
2017-09-01T07:50:25.781Z,52.90
2017-09-01T07:52:52.105Z,54.00
2017-09-01T07:55:18.641Z,55.60
2017-09-01T07:57:44.929Z,54.40
2017-09-01T08:00:11.387Z,55.20
2017-09-01T08:02:37.775Z,55.00
2017-09-01T08:05:04.073Z,53.00
2017-09-01T08:07:30.356Z,51.90
2017-09-01T08:09:58.764Z,52.60
2017-09-01T08:12:25.071Z,52.10
2017-09-01T08:14:51.327Z,50.00
2017-09-01T08:17:17.912Z,47.30
2017-09-01T08:19:44.196Z,44.90
2017-09-01T08:22:10.445Z,42.50
2017-09-01T08:24:36.558Z,43.80
2017-09-01T08:27:02.829Z,46.30
2017-09-01T08:29:29.020Z,47.10
2017-09-01T08:31:55.334Z,47.30
2017-09-01T08:34:21.731Z,47.70
2017-09-01T08:36:48.048Z,46.10
2017-09-01T08:39:14.258Z,47.00
2017-09-01T08:41:40.494Z,47.50
2017-09-01T08:44:06.784Z,45.20
2017-09-01T08:46:32.914Z,44.50
2017-09-01T08:48:59.243Z,44.80
2017-09-01T08:51:25.477Z,43.30
2017-09-01T08:53:51.897Z,41.70
2017-09-01T08:56:18.170Z,42.60
2017-09-01T08:58:44.393Z,39.90
2017-09-01T09:01:10.506Z,39.20
2017-09-01T09:03:36.915Z,39.20
2017-09-01T09:06:03.083Z,39.20
2017-09-01T09:08:29.231Z,38.40
2017-09-01T09:10:55.463Z,36.40
2017-09-01T09:13:21.638Z,35.50
2017-09-01T09:15:48.142Z,36.70
2017-09-01T09:18:14.302Z,38.60
2017-09-01T09:20:40.522Z,41.80
2017-09-01T09:23:07.022Z,44.30
2017-09-01T09:25:33.409Z,44.90
2017-09-01T09:27:59.687Z,43.50
2017-09-01T09:30:25.985Z,43.50
2017-09-01T09:32:52.221Z,43.70
2017-09-01T09:35:18.441Z,42.00
2017-09-01T09:37:44.559Z,40.90
2017-09-01T09:40:10.712Z,42.20
2017-09-01T09:42:36.878Z,42.00
2017-09-01T09:45:03.114Z,42.20
2017-09-01T09:47:29.663Z,42.70
2017-09-01T09:49:55.873Z,43.20
2017-09-01T09:52:22.144Z,42.30
2017-09-01T09:54:48.353Z,42.60
2017-09-01T09:57:14.502Z,41.20
2017-09-01T09:59:40.670Z,42.80
2017-09-01T10:02:06.856Z,41.90
2017-09-01T10:04:32.989Z,41.60
2017-09-01T10:06:59.187Z,40.70
2017-09-01T10:09:25.405Z,39.50
2017-09-01T10:11:51.672Z,38.40
2017-09-01T10:14:17.807Z,37.30
2017-09-01T10:16:43.994Z,37.20
2017-09-01T10:19:16.390Z,39.20
2017-09-01T10:21:42.685Z,39.80
2017-09-01T10:24:08.933Z,39.90
2017-09-01T10:26:35.125Z,42.60
2017-09-01T10:29:01.270Z,41.40
2017-09-01T10:31:27.743Z,41.10
2017-09-01T10:33:53.961Z,40.40
2017-09-01T10:36:20.632Z,40.30
2017-09-01T10:38:46.851Z,39.00
2017-09-01T10:41:13.020Z,39.40
2017-09-01T10:43:39.316Z,40.00
2017-09-01T10:46:05.664Z,42.00
2017-09-01T10:48:45.037Z,43.80
2017-09-01T10:51:24.128Z,44.90
2017-09-01T10:54:03.016Z,43.00
2017-09-01T10:56:41.745Z,41.90
2017-09-01T10:59:08.108Z,44.50
2017-09-01T11:01:34.491Z,44.80
2017-09-01T11:04:00.914Z,45.70
2017-09-01T11:06:27.258Z,46.90
2017-09-01T11:08:53.748Z,46.80
2017-09-01T11:11:20.230Z,47.60
2017-09-01T11:13:46.640Z,47.40
2017-09-01T11:16:13.430Z,46.30
2017-09-01T11:18:45.981Z,47.50
2017-09-01T11:21:19.024Z,46.40
2017-09-01T11:26:50.769Z,45.80
2017-09-01T11:29:17.152Z,46.60
2017-09-01T11:31:43.669Z,47.20
2017-09-01T11:34:10.095Z,46.50
2017-09-01T11:36:36.564Z,48.70
2017-09-01T11:39:02.973Z,49.50
2017-09-01T11:41:29.459Z,47.70
2017-09-01T11:43:55.802Z,47.30
2017-09-01T11:46:21.988Z,49.20
2017-09-01T11:48:48.210Z,50.60
2017-09-01T11:51:14.484Z,50.90
2017-09-01T11:53:41.776Z,51.50
2017-09-01T11:56:08.968Z,52.40
2017-09-01T11:58:35.293Z,52.20
2017-09-01T12:01:01.746Z,51.60
2017-09-01T12:03:28.162Z,52.10
2017-09-01T12:05:54.928Z,52.50
2017-09-01T12:08:22.392Z,52.30
2017-09-01T12:10:49.422Z,51.60
2017-09-01T12:13:16.020Z,51.60
2017-09-01T12:15:42.406Z,49.40
2017-09-01T12:18:09.078Z,49.70
2017-09-01T12:20:35.437Z,49.40
2017-09-01T12:23:02.024Z,49.30
2017-09-01T12:25:28.833Z,49.90
2017-09-01T12:27:55.253Z,50.20
2017-09-01T12:30:21.604Z,50.60
2017-09-01T12:32:47.802Z,51.60
2017-09-01T12:35:14.051Z,52.20
2017-09-01T12:37:40.254Z,52.40
2017-09-01T12:40:07.103Z,52.30
2017-09-01T12:42:33.369Z,52.70
2017-09-01T12:44:59.569Z,53.70
2017-09-01T12:47:25.855Z,52.50
2017-09-01T12:49:52.025Z,52.90
2017-09-01T12:52:18.258Z,53.60
2017-09-01T12:54:45.513Z,53.10
2017-09-01T12:57:11.851Z,52.80
2017-09-01T12:59:38.048Z,53.10
2017-09-01T13:02:04.284Z,53.50
2017-09-01T13:04:31.022Z,53.10
2017-09-01T13:06:57.237Z,53.40
2017-09-01T13:09:23.465Z,53.50
2017-09-01T13:11:49.742Z,53.50
2017-09-01T13:14:15.914Z,53.20
2017-09-01T13:16:42.201Z,53.50
2017-09-01T13:19:08.484Z,54.80
2017-09-01T13:21:34.755Z,53.80
2017-09-01T13:24:01.627Z,54.50
2017-09-01T13:26:27.800Z,53.70
2017-09-01T13:28:54.046Z,53.50
2017-09-01T13:31:20.220Z,53.50
2017-09-01T13:33:46.395Z,53.10
2017-09-01T13:36:12.521Z,52.10
2017-09-01T13:38:38.726Z,52.10
2017-09-01T13:41:05.012Z,52.00
2017-09-01T13:43:31.175Z,51.80
2017-09-01T13:45:57.417Z,52.80
2017-09-01T13:48:23.665Z,53.60
2017-09-01T13:50:49.866Z,54.00
2017-09-01T13:53:16.040Z,53.00
2017-09-01T13:55:42.261Z,52.70
2017-09-01T13:58:08.431Z,53.20
2017-09-01T14:00:34.710Z,52.50
2017-09-01T14:03:00.901Z,53.40
2017-09-01T14:05:27.182Z,53.40
2017-09-01T14:07:53.448Z,53.60
2017-09-01T14:10:19.576Z,54.90
2017-09-01T14:12:51.937Z,53.50
2017-09-01T14:15:18.213Z,53.80
2017-09-01T14:17:44.362Z,53.30
2017-09-01T14:20:10.681Z,53.80
2017-09-01T14:22:36.914Z,54.00
2017-09-01T14:25:03.421Z,54.20
2017-09-01T14:27:29.784Z,53.90
2017-09-01T14:29:55.957Z,53.90
2017-09-01T14:32:22.155Z,54.10
2017-09-01T14:34:48.359Z,53.80
2017-09-01T14:37:14.669Z,54.20
2017-09-01T14:39:40.964Z,54.30
2017-09-01T14:42:07.202Z,54.40
2017-09-01T14:44:33.482Z,54.50
2017-09-01T14:46:59.663Z,54.70
2017-09-01T14:49:25.845Z,55.10
2017-09-01T14:51:52.083Z,55.50
2017-09-01T14:54:18.299Z,55.90
2017-09-01T14:56:44.508Z,55.50
2017-09-01T14:59:10.774Z,55.10
2017-09-01T15:01:36.938Z,56.80
2017-09-01T15:04:04.190Z,56.10
2017-09-01T15:06:30.499Z,56.70
2017-09-01T15:08:56.653Z,56.60
2017-09-01T15:11:22.947Z,56.30
2017-09-01T15:13:53.077Z,56.40
2017-09-01T15:16:19.632Z,57.20
2017-09-01T15:18:46.136Z,56.60
2017-09-01T15:21:12.322Z,57.00
2017-09-01T15:23:39.218Z,57.30
2017-09-01T15:26:06.397Z,57.60
2017-09-01T15:28:32.594Z,57.60
2017-09-01T15:30:58.730Z,58.20
2017-09-01T15:33:25.235Z,57.70
2017-09-01T15:35:51.438Z,58.00
2017-09-01T15:38:18.742Z,58.80
2017-09-01T15:40:45.066Z,57.40
2017-09-01T15:43:11.463Z,58.40
2017-09-01T15:45:37.851Z,58.00
2017-09-01T15:48:04.153Z,58.20
2017-09-01T15:50:30.319Z,58.60
2017-09-01T15:52:56.539Z,59.20
2017-09-01T15:55:22.856Z,59.10
2017-09-01T15:57:49.108Z,58.60
2017-09-01T16:00:15.302Z,58.70
2017-09-01T16:02:41.471Z,59.00
2017-09-01T16:05:07.667Z,58.60
2017-09-01T16:07:34.679Z,59.00
2017-09-01T16:10:00.875Z,58.40
2017-09-01T16:12:27.025Z,59.60
2017-09-01T16:14:53.297Z,59.20
2017-09-01T16:17:19.619Z,58.70
2017-09-01T16:19:45.731Z,59.20
2017-09-01T16:22:12.018Z,59.30
2017-09-01T16:24:38.195Z,59.50
2017-09-01T16:27:05.343Z,59.70
2017-09-01T16:29:31.537Z,60.00
2017-09-01T16:31:58.664Z,60.50
2017-09-01T16:34:24.889Z,59.50
2017-09-01T16:36:51.155Z,59.90
2017-09-01T16:39:17.343Z,61.10
2017-09-01T16:41:43.668Z,61.40
2017-09-01T16:44:09.848Z,61.60
2017-09-01T16:46:36.053Z,62.10
2017-09-01T16:49:02.276Z,62.10
2017-09-01T16:51:28.471Z,62.20
2017-09-01T16:53:54.898Z,62.70
2017-09-01T16:56:21.131Z,63.80
2017-09-01T16:58:47.365Z,63.40
2017-09-01T17:01:13.632Z,62.80
2017-09-01T17:03:40.987Z,63.50
2017-09-01T17:06:07.239Z,63.40
2017-09-01T17:08:33.396Z,63.80
2017-09-01T17:10:59.676Z,63.70
2017-09-01T17:13:26.264Z,64.20
2017-09-01T17:15:53.467Z,63.40
2017-09-01T17:18:19.757Z,63.90
2017-09-01T17:20:46.093Z,63.20
2017-09-01T17:23:12.416Z,63.40
2017-09-01T17:25:38.625Z,63.00
2017-09-01T17:28:04.882Z,63.10
2017-09-01T17:30:31.117Z,63.60
2017-09-01T17:32:58.153Z,64.20
2017-09-01T17:35:25.349Z,63.80
2017-09-01T17:37:55.865Z,64.30
2017-09-01T17:40:23.434Z,64.20
2017-09-01T17:42:49.715Z,64.60
2017-09-01T17:45:15.889Z,65.00
2017-09-01T17:47:42.057Z,65.70
2017-09-01T17:50:09.017Z,65.70
2017-09-01T17:52:35.935Z,65.70
2017-09-01T17:55:02.130Z,66.00
2017-09-01T17:57:28.315Z,66.60
2017-09-01T17:59:54.654Z,65.70
2017-09-01T18:02:20.826Z,66.30
2017-09-01T18:04:47.087Z,66.60
2017-09-01T18:07:13.308Z,66.40
2017-09-01T18:09:39.641Z,65.80
2017-09-01T18:12:05.766Z,65.70
2017-09-01T18:14:31.944Z,65.40
2017-09-01T18:16:58.176Z,65.60
2017-09-01T18:19:24.374Z,65.50
2017-09-01T18:21:50.687Z,65.50
2017-09-01T18:24:16.937Z,65.90
2017-09-01T18:26:43.143Z,65.10
2017-09-01T18:29:09.491Z,64.60
2017-09-01T18:31:35.814Z,64.50
2017-09-01T18:34:02.410Z,64.50
2017-09-01T18:36:28.740Z,65.40
2017-09-01T18:38:54.912Z,65.80
2017-09-01T18:41:21.149Z,65.90
2017-09-01T18:43:48.492Z,65.40
2017-09-01T18:46:14.709Z,66.10
2017-09-01T18:48:41.028Z,66.30
2017-09-01T18:51:07.220Z,67.00
2017-09-01T18:53:33.390Z,67.80
2017-09-01T18:55:59.651Z,66.30
2017-09-01T18:58:31.917Z,66.90
2017-09-01T19:00:58.183Z,67.10
2017-09-01T19:03:24.525Z,67.00
2017-09-01T19:05:51.852Z,66.40
2017-09-01T19:08:18.354Z,65.40
2017-09-01T19:10:45.043Z,65.90
2017-09-01T19:13:11.444Z,65.60
2017-09-01T19:15:41.619Z,66.60
2017-09-01T19:18:08.093Z,66.80
2017-09-01T19:20:34.609Z,66.70
2017-09-01T19:23:01.483Z,66.10
2017-09-01T19:25:28.245Z,66.60
2017-09-01T19:27:54.496Z,66.60
2017-09-01T19:30:20.642Z,65.30
2017-09-01T19:32:47.226Z,64.70
2017-09-01T19:35:13.790Z,65.70
2017-09-01T19:37:40.031Z,65.00
2017-09-01T19:40:06.611Z,65.10
2017-09-01T19:42:32.996Z,66.30
2017-09-01T19:44:59.795Z,67.00
2017-09-01T19:47:26.426Z,67.60
2017-09-01T19:49:52.922Z,68.10
2017-09-01T19:52:19.503Z,69.20
2017-09-01T19:54:45.997Z,69.40
2017-09-01T19:57:12.457Z,68.80
2017-09-01T19:59:39.710Z,69.20
2017-09-01T20:02:06.054Z,68.80
2017-09-01T20:04:32.474Z,68.80
2017-09-01T20:06:58.979Z,68.70
2017-09-01T20:09:26.308Z,68.60
2017-09-01T20:11:52.749Z,69.00
2017-09-01T20:14:19.210Z,68.60
2017-09-01T20:16:46.003Z,68.50
2017-09-01T20:19:12.737Z,68.90
2017-09-01T20:21:41.640Z,69.50
2017-09-01T20:24:08.338Z,68.70
2017-09-01T20:26:34.982Z,68.30
2017-09-01T20:29:02.274Z,69.20
2017-09-01T20:31:28.811Z,69.20
2017-09-01T20:33:55.279Z,69.40
2017-09-01T20:36:21.772Z,69.80
2017-09-01T20:38:48.806Z,69.80
2017-09-01T20:41:15.219Z,70.60
2017-09-01T20:43:41.903Z,70.50
2017-09-01T20:46:08.200Z,71.50
2017-09-01T20:48:35.185Z,71.20
2017-09-01T20:51:01.627Z,71.20
2017-09-01T20:53:28.315Z,72.10
2017-09-01T20:55:56.166Z,72.20
2017-09-01T20:58:22.497Z,72.00
2017-09-01T21:00:49.099Z,72.40
2017-09-01T21:03:17.254Z,72.70
2017-09-01T21:05:43.656Z,73.50
2017-09-01T21:08:10.122Z,72.40
2017-09-01T21:10:36.859Z,71.90
2017-09-01T21:13:03.113Z,72.20
2017-09-01T21:15:29.341Z,71.70
2017-09-01T21:18:02.933Z,71.80
2017-09-01T21:20:29.144Z,71.80
2017-09-01T21:22:55.390Z,71.50
2017-09-01T21:25:21.891Z,70.60
2017-09-01T21:27:48.047Z,70.50
2017-09-01T21:30:14.294Z,70.90
2017-09-01T21:32:40.866Z,71.70
2017-09-01T21:35:07.041Z,72.40
2017-09-01T21:37:33.180Z,71.70
2017-09-01T21:39:59.754Z,71.80
2017-09-01T21:42:26.019Z,72.20
2017-09-01T21:44:52.197Z,71.50
2017-09-01T21:47:18.731Z,71.90
2017-09-01T21:49:45.053Z,72.10
2017-09-01T21:52:11.300Z,72.20
2017-09-01T21:54:37.839Z,71.90
2017-09-01T21:57:04.043Z,71.60
2017-09-01T21:59:30.349Z,71.00
2017-09-01T22:01:56.917Z,72.40
2017-09-01T22:04:23.235Z,71.10
2017-09-01T22:06:49.336Z,70.60
2017-09-01T22:09:15.840Z,70.40
2017-09-01T22:11:48.162Z,69.60
2017-09-01T22:14:14.564Z,70.10
2017-09-01T22:16:41.082Z,69.90
2017-09-01T22:19:07.287Z,70.80
2017-09-01T22:21:33.517Z,71.50
2017-09-01T22:24:00.191Z,70.70
2017-09-01T22:26:26.315Z,70.50
2017-09-01T22:28:52.491Z,72.10
2017-09-01T22:31:18.770Z,70.50
2017-09-01T22:33:45.001Z,70.70
2017-09-01T22:36:11.154Z,70.70
2017-09-01T22:38:37.625Z,71.30
2017-09-01T22:41:03.810Z,72.10
2017-09-01T22:43:29.986Z,72.40
2017-09-01T22:45:56.531Z,72.00
2017-09-01T22:48:22.713Z,73.10
2017-09-01T22:50:48.849Z,73.20
2017-09-01T22:53:15.367Z,73.90
2017-09-01T22:55:41.589Z,74.20
2017-09-01T22:58:07.764Z,74.30
2017-09-01T23:00:34.294Z,73.90
2017-09-01T23:03:00.393Z,74.90
2017-09-01T23:05:26.523Z,75.30
2017-09-01T23:07:53.016Z,74.60
2017-09-01T23:10:19.195Z,73.20
2017-09-01T23:12:45.399Z,74.00
2017-09-01T23:15:11.950Z,75.20
2017-09-01T23:17:38.163Z,75.50
2017-09-01T23:20:04.335Z,76.20
2017-09-01T23:22:30.781Z,77.10
2017-09-01T23:24:56.968Z,77.60
2017-09-01T23:27:23.193Z,76.70
2017-09-01T23:29:49.450Z,76.90
2017-09-01T23:32:15.641Z,76.90
2017-09-01T23:34:41.813Z,77.50
2017-09-01T23:37:08.347Z,77.70
2017-09-01T23:39:34.537Z,77.80
2017-09-01T23:42:00.763Z,78.20
2017-09-01T23:44:27.220Z,77.80
2017-09-01T23:46:53.481Z,77.10
2017-09-01T23:49:19.665Z,78.20
2017-09-01T23:51:46.247Z,77.00
2017-09-01T23:54:12.486Z,77.30
2017-09-01T23:56:38.606Z,77.80
2017-09-01T23:59:05.115Z,78.50
